CheckWX is a tool to help pilots better visualize weather data.  It is not intended as a substitute for an official pre-flight weather briefing.

09:37:24 UTC

ENEV METAR
Harstad / Narvik , Evenes Airport
Evenes, Norway
Current

47 mins ago

ENEV 200850Z 00000KT 3100 -SN VV014 M11/M13 Q1010 RMK WIND 1400FT 20004KT
Observed
Feb-20 @ 08:50 UTC
Visibility
3,106 meters
Flight Rules
LIFR
Conditions
Light Snow
Cloud Levels
  • Vertical visibility at 1,400' AGL
Temperature
-11°C / 12°F
Dewpoint
-13°C / 9°F
Humidity
85%
Altimeter
29.82" Hg
Pressure
1009.92 hPa
Previous

2 hours ago

ENEV 200750Z VRB02KT 9999 VCSH FEW014 BKN036 M14/M15 Q1009 RMK WIND 1400FT 26004KT
Observed
Feb-20 @ 07:50 UTC
Wind
  • Variable at 2 KTS
Visibility
10,000+ meters
Flight Rules
VFR
Cloud Levels
  • Few at 1,400' AGL
  • Broken at 3,600' AGL
Temperature
-14°C / 7°F
Dewpoint
-15°C / 5°F
Humidity
92%
Altimeter
29.79" Hg
Pressure
1008.92 hPa
Previous

2 hours ago

ENEV 200720Z VRB02KT 9999 -SHSN FEW030 BKN040 M15/M17 Q1009 RMK WIND 1400FT 29006KT
Observed
Feb-20 @ 07:20 UTC
Wind
  • Variable at 2 KTS
Visibility
10,000+ meters
Flight Rules
VFR
Conditions
Light Snow
Cloud Levels
  • Few at 3,000' AGL
  • Broken at 4,000' AGL
Temperature
-15°C / 5°F
Dewpoint
-17°C / 1°F
Humidity
85%
Altimeter
29.79" Hg
Pressure
1008.92 hPa